createdAt,value
2018-03-02T00:01:34.075Z,30.83
2018-03-02T00:04:01.511Z,30.73
2018-03-02T00:06:28.979Z,30.17
2018-03-02T00:08:56.437Z,30.43
2018-03-02T00:11:23.883Z,29.70
2018-03-02T00:13:51.378Z,29.97
2018-03-02T00:16:18.883Z,29.47
2018-03-02T00:18:46.337Z,28.93
2018-03-02T00:21:13.797Z,28.20
2018-03-02T00:23:41.235Z,28.63
2018-03-02T00:26:08.716Z,28.40
2018-03-02T00:28:36.199Z,27.47
2018-03-02T00:31:03.693Z,30.73
2018-03-02T00:33:31.129Z,29.87
2018-03-02T00:35:58.607Z,29.63
2018-03-02T00:38:26.105Z,28.17
2018-03-02T00:40:54.221Z,30.20
2018-03-02T00:43:21.669Z,30.13
2018-03-02T00:45:49.088Z,29.07
2018-03-02T00:48:16.564Z,29.50
2018-03-02T00:50:44.078Z,28.20
2018-03-02T00:53:11.536Z,29.93
2018-03-02T00:55:39.042Z,30.53
2018-03-02T00:58:06.511Z,29.80
2018-03-02T01:00:33.981Z,29.40
2018-03-02T01:03:01.404Z,30.17
2018-03-02T01:05:28.910Z,28.93
2018-03-02T01:07:56.367Z,30.87
2018-03-02T01:10:23.943Z,30.37
2018-03-02T01:12:51.410Z,30.30
2018-03-02T01:15:19.128Z,27.97
2018-03-02T01:17:47.750Z,28.50
2018-03-02T01:20:15.208Z,29.37
2018-03-02T01:22:42.708Z,29.30
2018-03-02T01:25:10.286Z,31.40
2018-03-02T01:27:37.825Z,31.40
2018-03-02T01:30:05.350Z,29.97
2018-03-02T01:32:32.818Z,31.17
2018-03-02T01:35:00.284Z,30.23
2018-03-02T01:37:27.813Z,30.40
2018-03-02T01:39:55.319Z,31.33
2018-03-02T01:42:22.816Z,31.17
2018-03-02T01:44:50.306Z,30.70
2018-03-02T01:47:17.742Z,31.30
2018-03-02T01:49:45.259Z,30.87
2018-03-02T01:52:12.734Z,32.47
2018-03-02T01:54:40.203Z,28.53
2018-03-02T01:57:07.681Z,31.30
2018-03-02T01:59:35.156Z,31.70
2018-03-02T02:02:02.638Z,29.83
2018-03-02T02:04:30.141Z,31.50
2018-03-02T02:06:57.582Z,30.10
2018-03-02T02:09:25.388Z,31.27
2018-03-02T02:11:52.828Z,30.70
2018-03-02T02:14:20.362Z,29.83
2018-03-02T02:16:47.818Z,30.87
2018-03-02T02:19:15.304Z,30.83
2018-03-02T02:21:42.763Z,29.67
2018-03-02T02:24:10.229Z,32.17
2018-03-02T02:26:42.620Z,30.93
2018-03-02T02:29:10.072Z,29.37
2018-03-02T02:31:37.534Z,30.20
2018-03-02T02:34:04.990Z,34.00
2018-03-02T02:36:32.463Z,32.00
2018-03-02T02:38:59.941Z,32.33
2018-03-02T02:41:27.408Z,32.77
2018-03-02T02:43:54.869Z,30.83
2018-03-02T02:46:22.321Z,30.57
2018-03-02T02:48:49.783Z,31.90
2018-03-02T02:51:17.262Z,32.33
2018-03-02T02:53:44.748Z,31.50
2018-03-02T02:56:12.218Z,33.17
2018-03-02T02:58:39.741Z,30.73
2018-03-02T03:01:07.187Z,32.13
2018-03-02T03:03:34.761Z,32.03
2018-03-02T03:06:02.244Z,30.90
2018-03-02T03:08:29.733Z,32.63
2018-03-02T03:10:57.212Z,34.27
2018-03-02T03:13:24.694Z,32.00
2018-03-02T03:15:52.143Z,31.23
2018-03-02T03:18:19.690Z,32.23
2018-03-02T03:20:47.450Z,31.50
2018-03-02T03:23:14.925Z,33.10
2018-03-02T03:25:42.424Z,32.80
2018-03-02T03:28:09.905Z,33.03
2018-03-02T03:30:37.357Z,33.87
2018-03-02T03:33:05.050Z,32.17
2018-03-02T03:35:33.413Z,34.47
2018-03-02T03:38:00.889Z,30.90
2018-03-02T03:40:28.346Z,32.40
2018-03-02T03:42:55.830Z,32.73
2018-03-02T03:45:23.291Z,33.80
2018-03-02T03:47:50.742Z,31.37
2018-03-02T03:50:18.206Z,33.93
2018-03-02T03:52:45.657Z,34.80
2018-03-02T03:55:13.196Z,35.00
2018-03-02T03:57:40.698Z,32.03
2018-03-02T04:00:08.156Z,34.03
2018-03-02T04:02:35.698Z,32.53
2018-03-02T04:05:03.136Z,34.43
2018-03-02T04:07:30.681Z,34.63
2018-03-02T04:09:58.102Z,33.07
2018-03-02T04:12:25.558Z,34.20
2018-03-02T04:14:53.014Z,33.43
2018-03-02T04:17:20.477Z,33.20
2018-03-02T04:19:47.929Z,32.90
2018-03-02T04:22:15.410Z,34.77
2018-03-02T04:24:42.869Z,33.80
2018-03-02T04:27:10.376Z,35.70
2018-03-02T04:29:37.827Z,34.40
2018-03-02T04:32:05.340Z,33.93
2018-03-02T04:34:32.776Z,34.57
2018-03-02T04:37:00.287Z,33.17
2018-03-02T04:39:27.837Z,33.80
2018-03-02T04:41:55.297Z,34.80
2018-03-02T04:44:22.778Z,35.70
2018-03-02T04:46:50.233Z,36.33
2018-03-02T04:49:17.709Z,36.03
2018-03-02T04:51:45.180Z,33.90
2018-03-02T04:54:12.625Z,34.50
2018-03-02T04:56:45.090Z,35.30
2018-03-02T04:59:12.525Z,33.73
2018-03-02T05:01:40.955Z,34.30
2018-03-02T05:04:09.242Z,34.03
2018-03-02T05:06:36.984Z,37.73
2018-03-02T05:09:04.443Z,37.47
2018-03-02T05:11:31.914Z,37.43
2018-03-02T05:13:59.415Z,35.37
2018-03-02T05:16:26.914Z,33.13
2018-03-02T05:18:54.409Z,35.43
2018-03-02T05:21:22.049Z,35.63
2018-03-02T05:23:49.642Z,36.57
2018-03-02T05:26:22.962Z,34.07
2018-03-02T05:28:50.489Z,36.93
2018-03-02T05:31:17.941Z,37.37
2018-03-02T05:33:45.462Z,35.90
2018-03-02T05:36:12.929Z,34.53
2018-03-02T05:38:40.450Z,37.67
2018-03-02T05:41:07.945Z,37.30
2018-03-02T05:43:36.404Z,35.87
2018-03-02T05:46:03.907Z,34.20
2018-03-02T05:48:31.414Z,33.67
2018-03-02T05:50:58.884Z,35.70
2018-03-02T05:53:26.355Z,37.30
2018-03-02T05:55:53.849Z,36.40
2018-03-02T05:58:22.096Z,39.17
2018-03-02T06:00:50.567Z,34.27
2018-03-02T06:03:18.051Z,34.30
2018-03-02T06:05:45.539Z,34.03
2018-03-02T06:08:13.050Z,36.57
2018-03-02T06:10:40.498Z,37.40
2018-03-02T06:13:07.974Z,35.30
2018-03-02T06:15:35.463Z,36.97
2018-03-02T06:18:02.922Z,35.87
2018-03-02T06:20:30.417Z,35.73
2018-03-02T06:22:58.039Z,36.77
2018-03-02T06:25:25.557Z,37.73
2018-03-02T06:27:53.068Z,35.40
2018-03-02T06:30:20.580Z,39.23
2018-03-02T06:32:48.041Z,36.70
2018-03-02T06:35:16.054Z,39.00
2018-03-02T06:37:43.534Z,36.93
2018-03-02T06:40:11.116Z,38.57
2018-03-02T06:42:38.549Z,39.07
2018-03-02T06:45:06.025Z,36.80
2018-03-02T06:47:33.557Z,38.43
2018-03-02T06:50:01.029Z,37.23
2018-03-02T06:52:28.545Z,37.30
2018-03-02T06:54:56.023Z,36.83
2018-03-02T06:57:23.496Z,36.90
2018-03-02T06:59:50.954Z,37.77
2018-03-02T07:02:18.458Z,36.63
2018-03-02T07:04:46.884Z,37.77
2018-03-02T07:07:14.375Z,37.23
2018-03-02T07:09:41.987Z,38.30
2018-03-02T07:12:09.481Z,37.10
2018-03-02T07:14:36.959Z,40.03
2018-03-02T07:17:04.390Z,36.40
2018-03-02T07:19:31.869Z,39.00
2018-03-02T07:21:59.932Z,36.13
2018-03-02T07:24:27.425Z,38.73
2018-03-02T07:26:54.881Z,38.83
2018-03-02T07:29:22.476Z,40.93
2018-03-02T07:31:49.935Z,37.37
2018-03-02T07:34:17.399Z,37.10
2018-03-02T07:36:44.938Z,38.00
2018-03-02T07:39:12.367Z,38.97
2018-03-02T07:41:39.876Z,41.53
2018-03-02T07:44:07.343Z,39.97
2018-03-02T07:46:34.846Z,39.60
2018-03-02T07:49:02.298Z,41.50
2018-03-02T07:51:29.826Z,39.77
2018-03-02T07:53:57.289Z,39.57
2018-03-02T07:56:24.781Z,39.67
2018-03-02T07:58:52.281Z,39.20
2018-03-02T08:01:19.819Z,40.47
2018-03-02T08:03:47.307Z,38.13
2018-03-02T08:06:14.785Z,41.23
2018-03-02T08:08:42.303Z,42.93
2018-03-02T08:11:11.363Z,40.50
2018-03-02T08:13:38.868Z,42.60
2018-03-02T08:16:06.411Z,39.73
2018-03-02T08:18:33.929Z,40.97
2018-03-02T08:21:01.435Z,41.77
2018-03-02T08:23:28.882Z,41.00
2018-03-02T08:25:56.367Z,41.60
2018-03-02T08:28:23.844Z,40.67
2018-03-02T08:30:51.362Z,41.57
2018-03-02T08:33:18.892Z,42.07
2018-03-02T08:35:46.380Z,43.90
2018-03-02T08:38:13.909Z,42.47
2018-03-02T08:40:41.339Z,42.83
2018-03-02T08:43:08.807Z,42.33
2018-03-02T08:45:36.255Z,44.37
2018-03-02T08:48:03.722Z,43.10
2018-03-02T08:50:31.177Z,42.63
2018-03-02T08:52:58.680Z,42.70
2018-03-02T08:55:26.135Z,42.47
2018-03-02T08:57:53.591Z,42.40
2018-03-02T09:00:21.118Z,44.20
2018-03-02T09:02:48.560Z,42.30
2018-03-02T09:05:16.054Z,44.60
2018-03-02T09:07:43.556Z,43.00
2018-03-02T09:10:11.086Z,42.70
2018-03-02T09:12:38.533Z,42.27
2018-03-02T09:15:05.961Z,39.90
2018-03-02T09:17:33.445Z,45.47
2018-03-02T09:20:00.917Z,43.77
2018-03-02T09:22:28.381Z,45.50
2018-03-02T09:24:55.830Z,45.43
2018-03-02T09:27:28.224Z,44.90
2018-03-02T09:29:57.295Z,41.83
2018-03-02T09:32:34.921Z,38.47
2018-03-02T09:35:04.201Z,45.27
2018-03-02T09:37:32.951Z,37.73
2018-03-02T09:40:09.974Z,39.13
2018-03-02T09:42:42.969Z,38.70
2018-03-02T09:45:13.787Z,39.77
2018-03-02T09:47:41.355Z,38.23
2018-03-02T09:50:08.810Z,37.80
2018-03-02T09:52:40.134Z,38.17
2018-03-02T09:55:11.615Z,38.27
2018-03-02T09:57:41.019Z,39.10
2018-03-02T10:00:09.972Z,38.77
2018-03-02T10:02:40.402Z,40.50
2018-03-02T10:05:10.726Z,40.73
2018-03-02T10:10:23.920Z,40.93
2018-03-02T10:12:55.595Z,42.23
2018-03-02T10:15:28.949Z,42.60
2018-03-02T10:17:57.441Z,41.53
2018-03-02T10:20:25.987Z,42.80
2018-03-02T10:22:57.832Z,42.93
2018-03-02T10:25:28.579Z,41.83
2018-03-02T10:27:56.641Z,40.60
2018-03-02T10:30:33.216Z,41.63
2018-03-02T10:33:01.444Z,43.40
2018-03-02T10:35:29.860Z,43.77
2018-03-02T10:40:37.431Z,42.67
2018-03-02T10:43:07.295Z,42.43
2018-03-02T10:45:38.886Z,41.87
2018-03-02T10:48:07.136Z,41.33
2018-03-02T10:50:39.408Z,42.73
2018-03-02T10:53:06.890Z,40.57
2018-03-02T10:55:34.353Z,41.57
2018-03-02T10:58:01.800Z,42.17
2018-03-02T11:00:35.108Z,40.17
2018-03-02T11:03:03.064Z,40.07
2018-03-02T11:05:36.162Z,41.00
2018-03-02T11:08:03.674Z,40.60
2018-03-02T11:10:31.156Z,37.57
2018-03-02T11:12:58.672Z,38.27
2018-03-02T11:15:26.178Z,38.17
2018-03-02T11:17:53.712Z,38.60
2018-03-02T11:20:21.158Z,37.83
2018-03-02T11:22:48.646Z,37.60
2018-03-02T11:25:16.121Z,37.30
2018-03-02T11:27:43.620Z,37.50
2018-03-02T11:30:11.052Z,38.40
2018-03-02T11:32:38.513Z,36.73
2018-03-02T11:35:06.014Z,37.57
2018-03-02T11:37:33.518Z,35.13
2018-03-02T11:40:01.053Z,35.90
2018-03-02T11:42:28.525Z,34.70
2018-03-02T11:44:56.416Z,35.23
2018-03-02T11:47:23.910Z,35.53
2018-03-02T11:49:51.399Z,34.30
2018-03-02T11:52:18.896Z,38.13
2018-03-02T11:54:46.385Z,35.60
2018-03-02T11:57:13.888Z,35.73
2018-03-02T11:59:41.442Z,35.63
2018-03-02T12:02:09.026Z,34.33
2018-03-02T12:04:36.474Z,33.80
2018-03-02T12:07:04.051Z,33.70
2018-03-02T12:09:31.474Z,33.13
2018-03-02T12:11:59.105Z,31.67
2018-03-02T12:14:26.647Z,33.97
2018-03-02T12:16:54.207Z,33.33
2018-03-02T12:19:22.153Z,34.87
2018-03-02T12:21:49.619Z,32.37
2018-03-02T12:24:17.322Z,33.10
2018-03-02T12:26:44.781Z,33.00
2018-03-02T12:29:12.251Z,32.80
2018-03-02T12:31:39.716Z,33.03
2018-03-02T12:34:07.188Z,34.40
2018-03-02T12:36:34.718Z,34.13
2018-03-02T12:39:02.113Z,34.13
2018-03-02T12:41:30.236Z,33.43
2018-03-02T12:43:57.739Z,33.23
2018-03-02T12:46:25.382Z,32.23
2018-03-02T12:48:52.924Z,32.87
2018-03-02T12:51:20.402Z,33.07
2018-03-02T12:53:47.855Z,32.70
2018-03-02T12:56:15.322Z,32.73
2018-03-02T12:58:42.832Z,31.77
2018-03-02T13:01:10.347Z,31.60
2018-03-02T13:03:37.874Z,32.57
2018-03-02T13:06:05.439Z,32.20
2018-03-02T13:08:32.887Z,32.20
2018-03-02T13:11:00.522Z,33.70
2018-03-02T13:13:28.029Z,34.30
2018-03-02T13:15:55.571Z,34.77
2018-03-02T13:18:34.708Z,35.87
2018-03-02T13:21:02.194Z,34.37
2018-03-02T13:23:29.705Z,32.70
2018-03-02T13:25:57.176Z,33.83
2018-03-02T13:28:36.329Z,35.10
2018-03-02T13:31:03.785Z,35.93
2018-03-02T13:36:31.091Z,36.43
2018-03-02T13:38:58.575Z,34.77
2018-03-02T13:41:37.894Z,35.73
2018-03-02T13:44:05.381Z,36.07
2018-03-02T13:46:32.827Z,35.20
2018-03-02T13:49:12.082Z,35.63
2018-03-02T13:51:39.496Z,35.40
2018-03-02T13:54:06.950Z,35.13
2018-03-02T13:56:46.904Z,33.73
2018-03-02T13:59:14.355Z,34.27
2018-03-02T14:01:41.834Z,33.80
2018-03-02T14:04:21.073Z,34.30
2018-03-02T14:06:48.559Z,34.33
2018-03-02T14:09:16.015Z,33.03
2018-03-02T14:11:43.503Z,33.10
2018-03-02T14:14:11.159Z,33.60
2018-03-02T14:16:38.705Z,33.00
2018-03-02T14:19:07.126Z,33.20
2018-03-02T14:21:34.607Z,35.43
2018-03-02T14:24:02.066Z,33.63
2018-03-02T14:26:29.645Z,33.47
2018-03-02T14:28:57.164Z,34.17
2018-03-02T14:31:25.147Z,34.83
2018-03-02T14:33:52.606Z,34.37
2018-03-02T14:36:25.181Z,35.27
2018-03-02T14:38:52.657Z,34.53
2018-03-02T14:41:20.171Z,35.03
2018-03-02T14:43:47.698Z,33.27
2018-03-02T14:46:15.302Z,34.97
2018-03-02T14:48:42.808Z,34.23
2018-03-02T14:51:10.276Z,34.13
2018-03-02T14:53:37.707Z,34.23
2018-03-02T14:56:05.424Z,34.60
2018-03-02T14:58:32.890Z,32.40
2018-03-02T15:01:00.407Z,35.53
2018-03-02T15:03:27.931Z,34.07
2018-03-02T15:05:55.412Z,35.90
2018-03-02T15:08:23.711Z,35.47
2018-03-02T15:10:52.110Z,33.97
2018-03-02T15:13:20.749Z,36.07
2018-03-02T15:15:48.233Z,34.43
2018-03-02T15:18:15.665Z,35.90
2018-03-02T15:20:43.231Z,36.07
2018-03-02T15:23:10.689Z,36.10
2018-03-02T15:25:38.190Z,34.30
2018-03-02T15:28:05.719Z,33.60
2018-03-02T15:30:33.180Z,33.63
2018-03-02T15:33:00.696Z,33.90
2018-03-02T15:35:28.177Z,35.30
2018-03-02T15:37:55.735Z,33.30
2018-03-02T15:40:23.194Z,33.97
2018-03-02T15:42:50.717Z,35.17
2018-03-02T15:45:18.184Z,32.83
2018-03-02T15:47:45.698Z,32.17
2018-03-02T15:50:13.218Z,34.60
2018-03-02T15:52:40.687Z,32.97
2018-03-02T15:55:08.151Z,35.03
2018-03-02T15:57:35.618Z,33.03
2018-03-02T16:00:03.088Z,34.17
2018-03-02T16:02:30.563Z,33.77
2018-03-02T16:04:58.079Z,33.87
2018-03-02T16:07:25.547Z,33.53
2018-03-02T16:09:53.033Z,32.60
2018-03-02T16:12:20.511Z,33.17
2018-03-02T16:14:47.967Z,33.23
2018-03-02T16:17:15.497Z,34.27
2018-03-02T16:19:43.127Z,33.90
2018-03-02T16:22:10.629Z,36.23
2018-03-02T16:24:38.104Z,35.87
2018-03-02T16:27:06.522Z,33.83
2018-03-02T16:29:34.087Z,33.40
2018-03-02T16:32:01.664Z,35.77
2018-03-02T16:34:29.124Z,35.37
2018-03-02T16:37:01.551Z,34.93
2018-03-02T16:39:29.005Z,33.57
2018-03-02T16:41:56.492Z,36.03
2018-03-02T16:44:23.953Z,35.20
2018-03-02T16:46:51.407Z,33.10
2018-03-02T16:49:19.582Z,34.73
2018-03-02T16:51:47.041Z,34.47
2018-03-02T16:54:14.519Z,35.50
2018-03-02T16:56:41.975Z,34.90
2018-03-02T16:59:09.462Z,33.80
2018-03-02T17:01:36.966Z,33.43
2018-03-02T17:04:04.505Z,32.87
2018-03-02T17:06:31.979Z,33.20
2018-03-02T17:08:59.470Z,32.43
2018-03-02T17:11:26.961Z,32.30
2018-03-02T17:13:54.524Z,35.00
2018-03-02T17:16:22.013Z,32.40
2018-03-02T17:18:49.461Z,32.37
2018-03-02T17:21:16.944Z,31.97
2018-03-02T17:23:44.639Z,31.40
2018-03-02T17:26:12.233Z,33.17
2018-03-02T17:28:39.737Z,32.50
2018-03-02T17:31:07.229Z,31.97
2018-03-02T17:33:34.715Z,29.70
2018-03-02T17:36:02.227Z,31.93
2018-03-02T17:38:29.707Z,31.53
2018-03-02T17:40:57.217Z,31.50
2018-03-02T17:43:24.683Z,30.87
2018-03-02T17:45:52.142Z,30.47
2018-03-02T17:48:19.599Z,30.47
2018-03-02T17:50:47.116Z,29.70
2018-03-02T17:53:14.642Z,30.30
2018-03-02T17:55:42.152Z,31.03
2018-03-02T17:58:09.632Z,31.10
2018-03-02T18:00:37.077Z,29.07
2018-03-02T18:03:04.535Z,29.10
2018-03-02T18:05:31.993Z,29.27
2018-03-02T18:07:59.505Z,30.97
2018-03-02T18:10:27.008Z,29.07
2018-03-02T18:12:54.468Z,26.63
2018-03-02T18:15:21.998Z,29.07
2018-03-02T18:17:49.503Z,30.47
2018-03-02T18:20:16.967Z,30.47
2018-03-02T18:22:44.441Z,30.03
2018-03-02T18:25:13.698Z,29.27
2018-03-02T18:27:42.043Z,30.30
2018-03-02T18:30:09.537Z,30.23
2018-03-02T18:32:36.981Z,30.63
2018-03-02T18:35:04.481Z,30.13
2018-03-02T18:37:31.951Z,28.40
2018-03-02T18:39:59.476Z,30.50
2018-03-02T18:42:26.976Z,27.63
2018-03-02T18:44:54.427Z,28.40
2018-03-02T18:47:22.367Z,30.37
2018-03-02T18:49:49.822Z,29.40
2018-03-02T18:52:17.285Z,30.30
2018-03-02T18:54:44.746Z,29.13
2018-03-02T18:57:12.228Z,29.03
2018-03-02T18:59:39.692Z,30.27
2018-03-02T19:02:07.158Z,29.33
2018-03-02T19:04:34.653Z,30.13
2018-03-02T19:07:02.127Z,31.10
2018-03-02T19:09:29.580Z,29.37
2018-03-02T19:11:57.053Z,28.73
2018-03-02T19:14:24.578Z,30.73
2018-03-02T19:16:52.061Z,30.53
2018-03-02T19:19:19.600Z,30.43
2018-03-02T19:21:47.064Z,30.13
2018-03-02T19:24:14.581Z,29.80
2018-03-02T19:26:42.038Z,32.40
2018-03-02T19:29:09.561Z,29.90
2018-03-02T19:31:37.087Z,29.77
2018-03-02T19:34:04.576Z,30.97
2018-03-02T19:36:32.164Z,29.10
2018-03-02T19:38:59.961Z,30.47
2018-03-02T19:41:27.556Z,32.47
2018-03-02T19:43:56.169Z,31.43
2018-03-02T19:46:24.562Z,32.00
2018-03-02T19:48:52.078Z,32.47
2018-03-02T19:51:21.363Z,32.57
2018-03-02T19:53:49.671Z,33.87
2018-03-02T19:56:18.068Z,31.73
2018-03-02T19:58:46.450Z,32.33
2018-03-02T20:01:14.088Z,31.70
2018-03-02T20:03:41.656Z,30.67
2018-03-02T20:06:09.161Z,32.87
2018-03-02T20:08:36.637Z,33.07
2018-03-02T20:11:04.178Z,31.10
2018-03-02T20:13:31.648Z,32.90
2018-03-02T20:15:59.187Z,32.93
2018-03-02T20:18:26.677Z,30.27
2018-03-02T20:20:54.159Z,31.40
2018-03-02T20:23:21.677Z,31.97
2018-03-02T20:25:49.176Z,32.53
2018-03-02T20:28:16.651Z,32.80
2018-03-02T20:30:44.202Z,33.83
2018-03-02T20:33:12.637Z,33.43
2018-03-02T20:35:40.165Z,32.50
2018-03-02T20:38:07.680Z,32.73
2018-03-02T20:40:35.205Z,33.37
2018-03-02T20:43:02.683Z,31.73
2018-03-02T20:45:35.340Z,30.97
2018-03-02T20:48:02.800Z,31.07
2018-03-02T20:50:30.426Z,30.57
2018-03-02T20:52:58.228Z,31.17
2018-03-02T20:55:25.699Z,32.50
2018-03-02T20:57:53.256Z,30.33
2018-03-02T21:00:20.808Z,31.20
2018-03-02T21:02:48.297Z,30.40
2018-03-02T21:05:15.780Z,30.13
2018-03-02T21:07:43.746Z,32.03
2018-03-02T21:10:11.309Z,30.63
2018-03-02T21:12:39.917Z,32.67
2018-03-02T21:15:07.519Z,30.23
2018-03-02T21:17:35.158Z,30.93
2018-03-02T21:20:02.688Z,30.17
2018-03-02T21:22:30.562Z,29.43
2018-03-02T21:24:58.074Z,31.27
2018-03-02T21:27:25.704Z,30.30
2018-03-02T21:29:53.304Z,30.77
2018-03-02T21:32:20.888Z,30.87
2018-03-02T21:34:48.351Z,30.70
2018-03-02T21:37:16.056Z,32.27
2018-03-02T21:39:43.599Z,30.77
2018-03-02T21:42:11.090Z,29.27
2018-03-02T21:44:38.536Z,29.20
2018-03-02T21:47:06.274Z,30.40
2018-03-02T21:49:33.745Z,30.03
2018-03-02T21:52:01.226Z,28.27
2018-03-02T21:54:28.934Z,32.70
2018-03-02T21:56:56.416Z,29.47
2018-03-02T21:59:23.903Z,28.67
2018-03-02T22:01:51.482Z,27.50
2018-03-02T22:04:18.968Z,27.63
2018-03-02T22:06:46.438Z,28.07
2018-03-02T22:09:13.894Z,28.83
2018-03-02T22:11:41.600Z,26.10
2018-03-02T22:14:09.140Z,31.57
2018-03-02T22:16:36.716Z,29.17
2018-03-02T22:19:04.216Z,27.80
2018-03-02T22:21:31.746Z,28.70
2018-03-02T22:23:59.240Z,27.10
2018-03-02T22:26:26.732Z,27.50
2018-03-02T22:28:54.231Z,26.67
2018-03-02T22:31:21.734Z,27.73
2018-03-02T22:33:49.254Z,26.30
2018-03-02T22:36:16.777Z,27.17
2018-03-02T22:38:44.345Z,26.43
2018-03-02T22:41:12.655Z,26.63
2018-03-02T22:43:40.112Z,30.87
2018-03-02T22:46:07.628Z,26.27
2018-03-02T22:48:35.640Z,29.53
2018-03-02T22:51:03.094Z,27.37
2018-03-02T22:53:30.584Z,30.03
2018-03-02T22:55:58.042Z,27.60
2018-03-02T22:58:25.518Z,26.63
2018-03-02T23:00:53.002Z,29.47
2018-03-02T23:03:20.511Z,26.67
2018-03-02T23:05:47.970Z,26.73
2018-03-02T23:08:15.414Z,25.37
2018-03-02T23:10:43.777Z,27.00
2018-03-02T23:13:11.236Z,26.77
2018-03-02T23:15:38.729Z,29.90
2018-03-02T23:18:06.267Z,26.50
2018-03-02T23:20:33.719Z,25.43
2018-03-02T23:23:01.235Z,29.67
2018-03-02T23:25:28.703Z,27.13
2018-03-02T23:27:56.139Z,29.80
2018-03-02T23:30:23.637Z,26.30
2018-03-02T23:32:51.107Z,27.30
2018-03-02T23:35:18.577Z,27.27
2018-03-02T23:37:46.029Z,26.47
2018-03-02T23:40:13.523Z,27.30
2018-03-02T23:42:40.981Z,27.60
2018-03-02T23:45:08.429Z,30.33
2018-03-02T23:47:35.901Z,26.70
2018-03-02T23:50:03.419Z,25.57
2018-03-02T23:52:30.915Z,30.63
2018-03-02T23:54:58.384Z,28.00
2018-03-02T23:57:25.892Z,31.53
2018-03-02T23:59:53.349Z,30.50
